Gunnison, CO

9:33 PM MDT on September 23, 2014 (GMT -0600)
West Ruby Ave Weather | Change Station
CLOSE
Current Station
Personal Weather Station
Location: Gunnison, CO
Elevation: 7713 ft
Nearby Weather Stations

Elev 7713 ft 38.55 °N, 106.93 °W | Updated 2 minutes ago

Mostly Cloudy
Mostly Cloudy
53.2 °F
Feels Like 53.2 °F
N
0.0
Wind Variable Wind from ESE
Gusts 2.0 mph

Today
High -- | Low -- °F
--% Chance of Precip.
Yesterday
High -- | Low -- °F
Precip. -- in
6:56 AM 7:03 PM
Waning Crescent, 0% visible
Pressure 30.40 in
Visibility 10.0 miles
Clouds Mostly Cloudy 8500 ft
Dew Point 37 °F
Humidity 55%
Rainfall 0.00 in
Snow Depth 0 in , 0 in , 0 in
UV 0.0 out of 12
Pollen 5.10 out of 12
Air Quality Not available.
Flu Activity Not available.
METAR KGUC 240315Z AUTO 09004KT 10SM BKN085 13/04 A3040 RMK AO1

More Conditions Fewer Conditions

Pressure 30.40 in
Visibility 10.0 miles
Clouds Mostly Cloudy 8500 ft
Dew Point 37 °F
Humidity 55%
Rainfall 0.00 in
Snow Depth 0 in , 0 in , 0 in
UV 0.0 out of 12
Pollen 5.10 out of 12
Air Quality Not available.
Flu Activity Not available.
METAR KGUC 240315Z AUTO 09004KT 10SM BKN085 13/04 A3040 RMK AO1

More Conditions Fewer Conditions

10-Day Weather Forecast

Almanac

Astronomy

Sep. 23, 2014 Rise Set
Actual Time 6:56 AM MDT 7:03 PM MDT
Civil Twilight 6:29 AM MDT 7:29 PM MDT
Nautical Twilight 5:59 AM MDT 8:00 PM MDT
Astronomical Twilight 5:27 AM MDT 8:31 PM MDT
Moon 6:23 AM MDT (9/23) 6:43 PM MDT (9/23)
Length of Visible Light 12h 59m
Length of Day
12h 06m
Tomorrow will be 2m 28s shorter.
Waning Crescent, 0% of the Moon is Illuminated
Today
Waning Crescent
Sep 24
New
Oct 1
First Quarter
Oct 8
Full
Oct 15
Last Quarter

Today's Extremes

State Highs State Lows

Community

WunderPhotos

Upload Photos

1,755,877 photos uploaded!

WunderBlogs® & News

Nearby

Snow Depth

Station Depth Elevation
Ute Creek 0 in 10650 ft
Grayback 0 in 11620 ft
Deadman Hill 0 in 10220 ft
Beaver Divide 0 in 8280 ft
Michigan Creek 0 in 10600 ft

Earthquake Activity

City Distance Mag. Time & Date
No recent earthquake activity has been reported nearby.
Minimum magnitude displayed is 2.5.

Coastal Water Temperatures

Place Temperature
No Stations Reporting

Nearby Weather Stations